Map

Track Data

SID SEASON NUMBER BASIN SUBBASIN NAME ISO_TIME NATURE LAT LON WMO_WIND WMO_PRES WMO_AGENCY TRACK_TYPE DIST2LAND LANDFALL IFLAG USA_AGENCY USA_ATCF_ID USA_LAT USA_LON USA_RECORD USA_STATUS USA_WIND USA_PRES USA_SSHS USA_R34_NE USA_R34_SE USA_R34_SW USA_R34_NW USA_R50_NE USA_R50_SE USA_R50_SW USA_R50_NW USA_R64_NE USA_R64_SE USA_R64_SW USA_R64_NW USA_POCI USA_ROCI USA_RMW USA_EYE TOKYO_LAT TOKYO_LON TOKYO_GRADE TOKYO_WIND TOKYO_PRES TOKYO_R50_DIR TOKYO_R50_LONG TOKYO_R50_SHORT TOKYO_R30_DIR TOKYO_R30_LONG TOKYO_R30_SHORT TOKYO_LAND CMA_LAT CMA_LON CMA_CAT CMA_WIND CMA_PRES HKO_LAT HKO_LON HKO_CAT HKO_WIND HKO_PRES NEWDELHI_LAT NEWDELHI_LON NEWDELHI_GRADE NEWDELHI_WIND NEWDELHI_PRES NEWDELHI_CI NEWDELHI_DP NEWDELHI_POCI REUNION_LAT REUNION_LON REUNION_TYPE REUNION_WIND REUNION_PRES REUNION_TNUM REUNION_CI REUNION_RMW REUNION_R34_NE REUNION_R34_SE REUNION_R34_SW REUNION_R34_NW REUNION_R50_NE REUNION_R50_SE REUNION_R50_SW REUNION_R50_NW REUNION_R64_NE REUNION_R64_SE REUNION_R64_SW REUNION_R64_NW BOM_LAT BOM_LON BOM_TYPE BOM_WIND BOM_PRES BOM_TNUM BOM_CI BOM_RMW BOM_R34_NE BOM_R34_SE BOM_R34_SW BOM_R34_NW BOM_R50_NE BOM_R50_SE BOM_R50_SW BOM_R50_NW BOM_R64_NE BOM_R64_SE BOM_R64_SW BOM_R64_NW BOM_ROCI BOM_POCI BOM_EYE BOM_POS_METHOD BOM_PRES_METHOD NADI_LAT NADI_LON NADI_CAT NADI_WIND NADI_PRES WELLINGTON_LAT WELLINGTON_LON WELLINGTON_WIND WELLINGTON_PRES DS824_LAT DS824_LON DS824_STAGE DS824_WIND DS824_PRES TD9636_LAT TD9636_LON TD9636_STAGE TD9636_WIND TD9636_PRES TD9635_LAT TD9635_LON TD9635_WIND TD9635_PRES TD9635_ROCI NEUMANN_LAT NEUMANN_LON NEUMANN_CLASS NEUMANN_WIND NEUMANN_PRES MLC_LAT MLC_LON MLC_CLASS MLC_WIND MLC_PRES USA_GUST BOM_GUST BOM_GUST_PER REUNION_GUST REUNION_GUST_PER USA_SEAHGT USA_SEARAD_NE USA_SEARAD_SE USA_SEARAD_SW USA_SEARAD_NW STORM_SPEED STORM_DIR
1899060S15063 1899 8 SI MM NOT_NAMED 1899-03-01 06:00:00 NR -14.6500 62.5000 reunion main 798 783 _____O____O___ -1 -14.5000 62.9000 99 9.90000 -14.8000 62.1000 7 3 245
1899060S15063 1899 8 SI MM NOT_NAMED 1899-03-01 09:00:00 NR -14.7180 62.3512 main 783 761 _____P____P___ -1 -14.5359 62.8226 99 -14.9001 61.8798 7 3 245
1899060S15063 1899 8 SI MM NOT_NAMED 1899-03-01 12:00:00 NR -14.7866 62.1997 main 761 745 _____P____P___ -1 -14.5731 62.7419 99 -15.0001 61.6576 7 3 245
1899060S15063 1899 8 SI MM NOT_NAMED 1899-03-01 15:00:00 NR -14.8565 62.0430 main 739 732 _____P____P___ -1 -14.6130 62.6544 99 -15.1000 61.4316 7 3 246
1899060S15063 1899 8 SI MM NOT_NAMED 1899-03-01 18:00:00 NR -14.9285 61.8785 main 732 710 _____P____O___ -1 -14.6569 62.5570 99 -15.2000 61.2000 7 4 246
1899060S15063 1899 8 SI MM NOT_NAMED 1899-03-01 21:00:00 NR -15.0031 61.7045 main 710 689 _____P____P___ -1 -14.7063 62.4462 99 -15.3000 60.9628 7 4 246
1899060S15063 1899 8 SI MM NOT_NAMED 1899-03-02 00:00:00 NR -15.0812 61.5231 main 689 667 _____P____P___ -1 -14.7624 62.3187 99 -15.4000 60.7275 7 4 246
1899060S15063 1899 8 SI MM NOT_NAMED 1899-03-02 03:00:00 NR -15.1633 61.3372 main 667 661 _____P____P___ -1 -14.8265 62.1711 99 -15.5000 60.5034 7 4 245
1899060S15063 1899 8 SI MM NOT_NAMED 1899-03-02 06:00:00 NR -15.2500 61.1500 reunion main 661 640 _____O____O___ -1 -14.9000 62.0000 99 9.90000 -15.6000 60.3000 7 4 243
1899060S15063 1899 8 SI MM NOT_NAMED 1899-03-02 09:00:00 NR -15.3438 60.9640 main 640 619 _____P____P___ -1 -14.9836 61.8037 99 -15.7040 60.1243 7 4 242
1899060S15063 1899 8 SI MM NOT_NAMED 1899-03-02 12:00:00 NR -15.4416 60.7783 main 619 599 _____P____P___ -1 -15.0759 61.5867 99 -15.8074 59.9699 7 4 241
1899060S15063 1899 8 SI MM NOT_NAMED 1899-03-02 15:00:00 NR -15.5410 60.5929 main 599 578 _____P____P___ -1 -15.1748 61.3553 99 -15.9071 59.8306 7 4 241
1899060S15063 1899 8 SI MM NOT_NAMED 1899-03-02 18:00:00 NR -15.6392 60.4078 main 578 558 _____P____O___ -1 -15.2784 61.1156 99 -16.0000 59.7000 7 4 242
1899060S15063 1899 8 SI MM NOT_NAMED 1899-03-02 21:00:00 NR -15.7272 60.2310 main 558 543 _____P____P___ -1 -15.3846 60.8740 99 -16.0699 59.5879 7 4 243
1899060S15063 1899 8 SI MM NOT_NAMED 1899-03-03 00:00:00 NR -15.8132 60.0582 main 543 524 _____P____P___ -1 -15.4915 60.6367 99 -16.1348 59.4797 7 4 243
1899060S15063 1899 8 SI MM NOT_NAMED 1899-03-03 03:00:00 NR -15.9023 59.8833 main 524 505 _____P____P___ -1 -15.5973 60.4099 99 -16.2073 59.3566 7 4 242
1899060S15063 1899 8 SI MM NOT_NAMED 1899-03-03 06:00:00 NR -16.0000 59.7000 reunion main 505 486 _____O____O___ -1 -15.7000 60.2000 99 9.90000 -16.3000 59.2000 7 4 241
1899060S15063 1899 8 SI MM NOT_NAMED 1899-03-03 09:00:00 NR -16.1003 59.5163 main 486 467 _____P____P___ -1 -15.7802 60.0466 99 -16.4204 58.9860 7 4 240
1899060S15063 1899 8 SI MM NOT_NAMED 1899-03-03 12:00:00 NR -16.2098 59.3239 main 467 450 _____P____P___ -1 -15.8569 59.9102 99 -16.5626 58.7375 7 4 239
1899060S15063 1899 8 SI MM NOT_NAMED 1899-03-03 15:00:00 NR -16.3283 59.1274 main 450 432 _____P____P___ -1 -15.9330 59.7846 99 -16.7235 58.4703 7 5 237
1899060S15063 1899 8 SI MM NOT_NAMED 1899-03-03 18:00:00 NR -16.4556 58.9317 main 422 408 _____P____O___ -1 -16.0112 59.6635 99 -16.9000 58.2000 7 5 235
1899060S15063 1899 8 SI MM NOT_NAMED 1899-03-03 21:00:00 NR -16.5879 58.7433 main 405 392 _____P____P___ -1 -16.0943 59.5407 99 -17.0815 57.9459 7 5 233
1899060S15063 1899 8 SI MM NOT_NAMED 1899-03-04 00:00:00 NR -16.7312 58.5512 main 392 365 _____P____P___ -1 -16.1850 59.4100 99 -17.2774 57.6924 7 5 232
1899060S15063 1899 8 SI MM NOT_NAMED 1899-03-04 03:00:00 NR -16.8853 58.3540 main 365 350 _____P____P___ -1 -16.2860 59.2652 99 -17.4846 57.4427 7 5 230
1899060S15063 1899 8 SI MM NOT_NAMED 1899-03-04 06:00:00 NR -17.0500 58.1500 reunion main 350 325 _____O____O___ -1 -16.4000 59.1000 99 9.90000 -17.7000 57.2000 7 5 232
1899060S15063 1899 8 SI MM NOT_NAMED 1899-03-04 09:00:00 NR -17.2116 57.9228 main 325 302 _____P____P___ -1 -16.5177 58.8860 99 -17.9056 56.9595 7 6 233
1899060S15063 1899 8 SI MM NOT_NAMED 1899-03-04 12:00:00 NR -17.3829 57.6898 main 302 279 _____P____P___ -1 -16.6458 58.6523 99 -18.1199 56.7272 7 6 231
1899060S15063 1899 8 SI MM NOT_NAMED 1899-03-04 15:00:00 NR -17.5675 57.4549 main 279 259 _____P____P___ -1 -16.7857 58.4035 99 -18.3493 56.5064 7 6 229
1899060S15063 1899 8 SI MM NOT_NAMED 1899-03-04 18:00:00 NR -17.7691 57.2223 main 259 240 _____P____O___ -1 -16.9382 58.1445 99 -18.6000 56.3000 7 6 227
1899060S15063 1899 8 SI MM NOT_NAMED 1899-03-04 21:00:00 NR -17.9834 56.9931 main 240 224 _____P____P___ -1 -17.1048 57.8799 99 -18.8621 56.1063 7 6 224
1899060S15063 1899 8 SI MM NOT_NAMED 1899-03-05 00:00:00 NR -18.2169 56.7708 main 224 202 _____P____P___ -1 -17.2864 57.6145 99 -19.1474 55.9272 7 6 220
1899060S15063 1899 8 SI MM NOT_NAMED 1899-03-05 03:00:00 NR -18.4717 56.5562 main 202 194 _____P____P___ -1 -17.4844 57.3529 99 -19.4590 55.7594 7 7 217
1899060S15063 1899 8 SI MM NOT_NAMED 1899-03-05 06:00:00 NR -18.7500 56.3500 reunion main 194 183 _____O____O___ -1 -17.7000 57.1000 99 9.90000 -19.8000 55.6000 7 7 214
1899060S15063 1899 8 SI MM NOT_NAMED 1899-03-05 09:00:00 NR -19.0436 56.1435 main 191 177 _____P____P___ -1 -17.9159 56.8564 99 -20.1712 55.4307 7 7 212
1899060S15063 1899 8 SI MM NOT_NAMED 1899-03-05 12:00:00 NR -19.3594 55.9436 main 180 145 _____P____P___ -1 -18.1488 56.6170 99 -20.5700 55.2701 7 7 210
1899060S15063 1899 8 SI MM NOT_NAMED 1899-03-05 15:00:00 NR -19.6912 55.7543 main 145 111 _____P____P___ -1 -18.3986 56.3842 99 -20.9838 55.1245 7 8 207
1899060S15063 1899 8 SI MM NOT_NAMED 1899-03-05 18:00:00 NR -20.0326 55.5801 main 111 78 _____P____O___ -1 -18.6652 56.1603 99 -21.4000 55.0000 7 7 205
1899060S15063 1899 8 SI MM NOT_NAMED 1899-03-05 21:00:00 NR -20.3662 55.4252 main 67 33 _____P____P___ -1 -18.9487 55.9475 99 -21.7837 54.9030 7 7 202
1899060S15063 1899 8 SI MM NOT_NAMED 1899-03-06 00:00:00 NR -20.7095 55.2876 main 33 10 _____P____P___ -1 -19.2490 55.7483 99 -22.1699 54.8269 7 7 199
1899060S15063 1899 8 SI MM NOT_NAMED 1899-03-06 03:00:00 NR -21.0686 55.1637 main 0 0 _____P____P___ -1 -19.5661 55.5650 99 -22.5712 54.7624 7 8 196
1899060S15063 1899 8 SI MM NOT_NAMED 1899-03-06 06:00:00 NR -21.4500 55.0500 reunion main 23 30 _____O____O___ -1 -19.9000 55.4000 99 9.90000 -23.0000 54.7000 7 8 195
1899060S15063 1899 8 SI MM NOT_NAMED 1899-03-06 09:00:00 NR -21.8587 54.9326 main 78 78 _____P____P___ -1 -20.2340 55.2482 99 -23.4834 54.6171 7 9 194
1899060S15063 1899 8 SI MM NOT_NAMED 1899-03-06 12:00:00 NR -22.2891 54.8248 main 123 123 _____P____P___ -1 -20.5856 55.1143 99 -23.9925 54.5353 7 9 192
1899060S15063 1899 8 SI MM NOT_NAMED 1899-03-06 15:00:00 NR -22.7296 54.7288 main 168 168 _____P____P___ -1 -20.9538 54.9969 99 -24.5053 54.4608 7 9 190
1899060S15063 1899 8 SI MM NOT_NAMED 1899-03-06 18:00:00 NR -23.1686 54.6471 main 224 224 _____P____O___ -1 -21.3372 54.8942 99 -25.0000 54.4000 7 9 189
1899060S15063 1899 8 SI MM NOT_NAMED 1899-03-06 21:00:00 NR -23.5974 54.5810 main 266 266 _____P____P___ -1 -21.7348 54.8048 99 -25.4600 54.3573 7 6 188
1899060S15063 1899 8 SI MM NOT_NAMED 1899-03-07 00:00:00 NR -23.7501 54.5568 main 287 287 _____P____P___ -1 -22.1452 54.7270 99 -25.8899 54.3298 7 2 189
1899060S15063 1899 8 SI MM NOT_NAMED 1899-03-07 03:00:00 NR -23.8116 54.5436 main 291 280 _____P____P___ -1 -22.5674 54.6593 99 -26.3000 54.3123 7 0 0
1899060S15063 1899 8 SI MM NOT_NAMED 1899-03-07 06:00:00 NR -23.7400 54.5400 reunion main 280 259 _____O____O___ -1 -23.0000 54.6000 99 9.90000 -26.7000 54.3000 7 3 358
1899060S15063 1899 8 SI MM NOT_NAMED 1899-03-07 09:00:00 NR -23.4784 54.5333 main 259 259 _____P________ -1 -23.4784 54.5333 99 7 2 193
1899060S15063 1899 8 SI MM NOT_NAMED 1899-03-07 12:00:00 NR -23.9749 54.4765 main 311 311 _____P________ -1 -23.9749 54.4765 99 7 10 186
1899060S15063 1899 8 SI MM NOT_NAMED 1899-03-07 15:00:00 NR -24.4782 54.4289 main 367 367 _____P________ -1 -24.4782 54.4289 99 7 10 185
1899060S15063 1899 8 SI MM NOT_NAMED 1899-03-07 18:00:00 NR -24.9771 54.3896 main 420 420 _____P________ -1 -24.9771 54.3896 99 10 184
1899060S15063 1899 8 SI MM NOT_NAMED 1899-03-07 21:00:00 NR -25.4601 54.3579 main 474 474 _____P________ -1 -25.4601 54.3579 99 9 184
1899060S15063 1899 8 SI MM NOT_NAMED 1899-03-08 00:00:00 NR -25.9158 54.3329 main 520 520 _____P________ -1 -25.9158 54.3329 99 9 183
1899060S15063 1899 8 SI MM NOT_NAMED 1899-03-08 03:00:00 NR -26.3329 54.3139 main 563 563 _____P________ -1 -26.3329 54.3139 99 8 183
1899060S15063 1899 8 SI MM NOT_NAMED 1899-03-08 06:00:00 NR -26.7000 54.3000 reunion main 606 606 _____O________ -1 -26.7000 54.3000 99 9.90000 7 0
1899060S15063 1899 8 SI MM NOT_NAMED 1899-03-08 09:00:00 NR -27.0090 54.2904 main 639 639 _____P________ -1 -27.0090 54.2904 99 6 0
1899060S15063 1899 8 SI MM NOT_NAMED 1899-03-08 12:00:00 NR -27.2643 54.2847 main 672 672 _____P________ -1 -27.2643 54.2847 99 5 181
1899060S15063 1899 8 SI MM NOT_NAMED 1899-03-08 15:00:00 NR -27.4737 54.2822 main 694 694 _____P________ -1 -27.4737 54.2822 99 4 184
1899060S15063 1899 8 SI MM NOT_NAMED 1899-03-08 18:00:00 NR -27.6449 54.2824 main 705 705 _____P________ -1 -27.6449 54.2824 99 3 0
1899060S15063 1899 8 SI MM NOT_NAMED 1899-03-08 21:00:00 NR -27.7854 54.2849 main 727 727 _____P________ -1 -27.7854 54.2849 99 3 174
1899060S15063 1899 8 SI MM NOT_NAMED 1899-03-09 00:00:00 NR -27.9030 54.2890 main 738 738 _____P________ -1 -27.9030 54.2890 99 2 177
1899060S15063 1899 8 SI MM NOT_NAMED 1899-03-09 03:00:00 NR -28.0053 54.2942 main 749 749 _____P________ -1 -28.0053 54.2942 99 2 175
1899060S15063 1899 8 SI MM NOT_NAMED 1899-03-09 06:00:00 NR -28.1000 54.3000 reunion main 760 _____O________ -1 -28.1000 54.3000 99 9.90000 2 168

About IBTrACS Database

This database is a web-friendly format of International Best Track Archive for Climate Stewardship (IBTrACS), a global best track data archive curated by NOAA dating back to 1842.

Updated: 2021-10-27